Time;durP1;ratioP1;P1;durP2;ratioP2;P2;SDS_P1;SDS_P2;PMS_P1;PMS_P2;Temp;Humidity;BMP_temperature;BMP_pressure;BME280_temperature;BME280_humidity;BME280_pressure;Samples;Min_cycle;Max_cycle;Signal;HPM_P1;HPM_P2
2021/03/02 00:00:21;;;;;;;3.85;2.83;;;;;;;2.13;78.15;100786.03;1815902;79;21036;-61
2021/03/02 00:02:48;;;;;;;3.90;2.52;;;;;;;2.11;78.21;100777.03;1815945;79;21149;-61
2021/03/02 00:05:16;;;;;;;4.65;3.55;;;;;;;2.09;78.29;100774.86;1815868;79;21226;-61
2021/03/02 00:07:44;;;;;;;5.00;2.20;;;;;;;2.10;78.31;100770.59;1815974;79;21560;-61
2021/03/02 00:10:13;;;;;;;2.67;2.30;;;;;;;2.09;78.28;100769.73;1815835;79;21059;-61
2021/03/02 00:12:41;;;;;;;3.35;2.50;;;;;;;2.07;78.28;100775.27;1815995;79;21044;-61
2021/03/02 00:15:12;;;;;;;3.80;2.55;;;;;;;2.07;78.28;100767.14;1815870;79;23562;-61
2021/03/02 00:17:48;;;;;;;2.98;2.00;;;;;;;2.05;78.27;100762.83;1815797;77;21555;-61
2021/03/02 00:20:20;;;;;;;3.58;2.75;;;;;;;2.07;78.37;100764.99;1815987;79;21519;-61
2021/03/02 00:23:09;;;;;;;4.10;3.27;;;;;;;2.06;78.40;100752.58;1787503;79;21107;-61
2021/03/02 00:25:58;;;;;;;5.97;3.90;;;;;;;2.07;78.45;100750.45;1798089;79;21119;-61
2021/03/02 00:28:26;;;;;;;4.95;3.30;;;;;;;2.08;78.38;100748.76;1700391;84;21226;-61
2021/03/02 00:30:55;;;;;;;5.03;3.30;;;;;;;2.04;78.44;100743.14;1702791;84;21122;-61
2021/03/02 00:33:22;;;;;;;4.20;3.37;;;;;;;2.01;78.44;100746.94;1735509;82;21129;-61
2021/03/02 00:35:52;;;;;;;4.58;3.20;;;;;;;2.00;78.56;100738.80;1735442;82;21602;-61
2021/03/02 00:38:19;;;;;;;3.95;2.87;;;;;;;1.99;78.63;100743.52;1735496;82;21181;-61
2021/03/02 00:40:49;;;;;;;4.87;3.27;;;;;;;1.97;78.72;100734.52;1735521;82;21440;-61
2021/03/02 00:43:16;;;;;;;4.25;2.77;;;;;;;1.99;78.79;100725.56;1735496;82;21106;-61
2021/03/02 00:45:46;;;;;;;4.05;3.05;;;;;;;2.02;78.70;100733.27;1735449;82;21102;-61
2021/03/02 00:48:15;;;;;;;3.92;2.70;;;;;;;2.01;78.69;100725.99;1735525;82;21106;-61
2021/03/02 00:50:43;;;;;;;4.03;2.90;;;;;;;2.00;78.71;100719.13;1735464;82;21130;-61
2021/03/02 00:53:12;;;;;;;4.00;3.20;;;;;;;2.04;78.68;100711.92;1735460;82;21227;-61
2021/03/02 00:55:41;;;;;;;5.90;3.45;;;;;;;2.10;78.75;100709.00;1728822;81;21926;-61
2021/03/02 00:58:08;;;;;;;6.58;3.45;;;;;;;2.16;78.63;100706.52;1728441;83;21054;-61
2021/03/02 01:00:36;;;;;;;5.65;3.75;;;;;;;2.21;78.51;100702.28;1728436;83;21505;-61
2021/03/02 01:03:07;;;;;;;5.17;3.45;;;;;;;2.22;78.30;100694.59;1728445;83;21267;-63
2021/03/02 01:05:37;;;;;;;6.10;3.45;;;;;;;2.23;78.21;100687.77;1728486;83;21392;-61
2021/03/02 01:08:07;;;;;;;5.08;3.25;;;;;;;2.23;78.09;100691.61;1728411;83;21983;-61
2021/03/02 01:10:36;;;;;;;5.95;3.20;;;;;;;2.23;78.05;100683.91;1728482;83;21078;-61
2021/03/02 01:13:06;;;;;;;7.03;3.30;;;;;;;2.25;78.08;100686.08;1728072;83;21086;-61
2021/03/02 01:15:34;;;;;;;5.35;3.55;;;;;;;2.27;77.92;100681.83;1728462;83;21058;-61
2021/03/02 01:18:02;;;;;;;5.12;3.27;;;;;;;2.28;77.88;100675.42;1728499;83;21224;-61
2021/03/02 01:20:30;;;;;;;6.87;4.33;;;;;;;2.29;77.60;100673.30;1728438;83;21197;-61
2021/03/02 01:22:57;;;;;;;5.92;3.60;;;;;;;2.28;77.50;100672.00;1728431;83;21524;-61
2021/03/02 01:25:27;;;;;;;4.85;3.47;;;;;;;2.24;77.48;100661.25;1728442;83;21082;-61
2021/03/02 01:27:55;;;;;;;4.62;2.85;;;;;;;2.17;77.48;100664.61;1728334;83;21075;-61
2021/03/02 01:30:24;;;;;;;5.00;3.20;;;;;;;2.12;77.63;100658.55;1728359;83;21212;-61
2021/03/02 01:32:53;;;;;;;4.58;3.15;;;;;;;2.11;77.74;100653.84;1728392;83;21098;-61
2021/03/02 01:35:21;;;;;;;4.45;3.25;;;;;;;2.10;77.82;100652.12;1728426;83;21107;-61
2021/03/02 01:37:50;;;;;;;6.22;3.87;;;;;;;2.09;77.87;100650.39;1728352;83;21162;-61
2021/03/02 01:40:19;;;;;;;5.60;3.67;;;;;;;2.08;78.00;100635.84;1728449;83;21071;-61
2021/03/02 01:42:47;;;;;;;8.38;4.20;;;;;;;2.10;77.98;100632.88;1728377;83;21399;-61
2021/03/02 01:45:17;;;;;;;6.35;3.95;;;;;;;2.07;77.99;100627.70;1728370;83;21150;-60
2021/03/02 01:47:49;;;;;;;6.15;3.50;;;;;;;2.08;78.00;100620.02;1728457;83;21087;-61
2021/03/02 01:50:20;;;;;;;5.15;3.22;;;;;;;2.06;78.08;100617.86;1728637;83;21062;-60
2021/03/02 01:52:48;;;;;;;6.40;3.62;;;;;;;2.01;78.13;100610.52;1728605;83;21507;-60
2021/03/02 01:55:17;;;;;;;6.78;4.58;;;;;;;1.97;78.24;100609.22;1728391;81;21392;-61
2021/03/02 01:57:44;;;;;;;7.45;4.35;;;;;;;1.92;78.39;100609.16;1728347;83;21995;-60
2021/03/02 02:00:26;;;;;;;4.17;3.27;;;;;;;1.90;78.57;100606.13;1728413;83;21123;-60
2021/03/02 02:03:02;;;;;;;5.03;3.60;;;;;;;1.88;78.66;100603.55;1728426;83;21134;-60
2021/03/02 02:05:33;;;;;;;4.85;3.30;;;;;;;1.85;78.80;100601.36;1728543;83;21582;-60
2021/03/02 02:08:05;;;;;;;5.25;3.58;;;;;;;1.85;79.00;100606.48;1728442;83;21395;-60
2021/03/02 02:10:55;;;;;;;5.15;3.87;;;;;;;1.83;79.11;100600.05;1728442;83;21488;-60
2021/03/02 02:13:28;;;;;;;4.62;3.50;;;;;;;1.83;79.25;100596.63;1728079;83;21178;-60
2021/03/02 02:15:57;;;;;;;5.97;4.22;;;;;;;1.82;79.31;100595.77;1728565;83;21087;-60
2021/03/02 02:18:29;;;;;;;5.15;3.55;;;;;;;1.82;79.35;100585.50;1728392;83;21059;-61
2021/03/02 02:21:11;;;;;;;5.15;3.40;;;;;;;1.80;79.34;100585.91;1728662;83;25209;-60
2021/03/02 02:23:53;;;;;;;4.90;3.15;;;;;;;1.80;79.38;100580.77;1728396;83;21112;-60
2021/03/02 02:26:49;;;;;;;3.35;2.87;;;;;;;1.78;79.47;100576.08;1728422;83;21118;-60
2021/03/02 02:29:22;;;;;;;4.45;3.22;;;;;;;1.76;79.56;100575.61;1728400;83;21091;-60
2021/03/02 02:31:49;;;;;;;4.87;3.05;;;;;;;1.72;79.60;100569.16;1728804;83;21598;-60
2021/03/02 02:34:19;;;;;;;3.87;3.30;;;;;;;1.68;79.68;100570.38;1701968;83;21236;-60
2021/03/02 02:36:49;;;;;;;6.08;3.50;;;;;;;1.65;79.71;100566.50;1728330;83;21098;-60
2021/03/02 02:39:18;;;;;;;5.25;3.75;;;;;;;1.62;79.85;100567.73;1728448;83;21484;-61
2021/03/02 02:41:47;;;;;;;3.92;3.00;;;;;;;1.59;79.99;100561.31;1728471;83;21079;-60
2021/03/02 02:44:17;;;;;;;5.92;4.15;;;;;;;1.56;80.12;100558.29;1728254;83;21073;-60
2021/03/02 02:46:45;;;;;;;5.67;3.85;;;;;;;1.57;80.19;100554.02;1728381;83;22375;-60
2021/03/02 02:49:13;;;;;;;7.62;3.72;;;;;;;1.55;80.24;100558.27;1701709;83;21579;-60
2021/03/02 02:51:41;;;;;;;4.75;3.45;;;;;;;1.53;80.36;100553.12;1728334;83;21158;-60
2021/03/02 02:54:09;;;;;;;5.20;3.85;;;;;;;1.54;80.37;100554.84;1728336;81;21070;-60
2021/03/02 02:56:39;;;;;;;5.00;3.42;;;;;;;1.54;80.42;100554.84;1728417;83;21514;-60
2021/03/02 02:59:23;;;;;;;5.92;3.92;;;;;;;1.55;80.58;100549.30;1701642;83;23511;-60
2021/03/02 03:02:00;;;;;;;8.00;4.10;;;;;;;1.56;80.64;100552.30;1728351;83;21174;-60
2021/03/02 03:04:41;;;;;;;5.00;3.60;;;;;;;1.59;80.58;100550.64;1728493;83;21491;-60
2021/03/02 03:07:14;;;;;;;4.85;3.58;;;;;;;1.63;80.57;100556.64;1728183;83;21189;-60
2021/03/02 03:09:44;;;;;;;7.28;4.70;;;;;;;1.67;80.54;100557.12;1728345;83;21074;-60
2021/03/02 03:12:15;;;;;;;6.22;4.15;;;;;;;1.68;80.43;100557.14;1728400;83;21574;-60
2021/03/02 03:14:53;;;;;;;;;;;;;;;1.67;80.35;100550.29;1730919;83;21170;-60
2021/03/02 03:17:21;;;;;;;7.30;3.85;;;;;;;1.71;80.24;100548.63;1679684;85;20505;-61
2021/03/02 03:19:49;;;;;;;5.30;3.42;;;;;;;1.72;80.04;100540.09;1665877;86;21097;-61
2021/03/02 03:22:17;;;;;;;4.87;3.37;;;;;;;1.75;79.61;100539.27;1689143;85;21096;-61
2021/03/02 03:24:45;;;;;;;5.40;3.55;;;;;;;1.76;79.48;100537.14;1693908;84;21504;-61
2021/03/02 03:27:13;;;;;;;3.55;3.20;;;;;;;1.78;79.06;100534.17;1667925;84;21206;-61
2021/03/02 03:29:42;;;;;;;4.70;3.55;;;;;;;1.79;78.68;100530.77;1693850;84;21180;-61
2021/03/02 03:32:10;;;;;;;4.05;3.22;;;;;;;1.77;78.53;100528.19;1689225;85;21622;-60
2021/03/02 03:34:39;;;;;;;5.12;3.45;;;;;;;1.78;78.45;100532.47;1693877;84;21098;-61
2021/03/02 03:37:07;;;;;;;5.60;3.60;;;;;;;1.81;78.30;100531.61;1693882;84;21394;-61
2021/03/02 03:39:34;;;;;;;7.03;4.00;;;;;;;1.84;77.97;100527.80;1693738;84;21104;-61
2021/03/02 03:42:03;;;;;;;5.80;4.58;;;;;;;1.83;77.96;100525.66;1689116;85;21532;-60
2021/03/02 03:44:31;;;;;;;7.22;4.55;;;;;;;1.83;77.93;100522.23;1693941;84;21610;-61
2021/03/02 03:47:01;;;;;;;4.45;3.70;;;;;;;1.84;77.49;100523.54;1693861;84;21202;-60
2021/03/02 03:49:29;;;;;;;5.90;3.90;;;;;;;1.81;77.45;100527.77;1689247;85;21568;-61
2021/03/02 03:51:58;;;;;;;7.37;3.90;;;;;;;1.74;77.46;100529.43;1693733;84;21095;-61
2021/03/02 03:54:27;;;;;;;4.85;3.98;;;;;;;1.69;77.66;100515.69;1693813;83;21182;-61
2021/03/02 03:56:54;;;;;;;5.17;4.55;;;;;;;1.68;77.88;100517.39;1668278;84;21505;-61
2021/03/02 03:59:24;;;;;;;5.25;4.75;;;;;;;1.70;77.70;100513.56;1689127;85;21142;-61
2021/03/02 04:01:52;;;;;;;5.47;4.53;;;;;;;1.71;77.51;100508.45;1661854;85;21509;-61
2021/03/02 04:04:20;;;;;;;6.03;4.65;;;;;;;1.71;77.57;100499.48;1693830;84;21640;-61
2021/03/02 04:06:48;;;;;;;5.00;4.50;;;;;;;1.73;77.34;100497.79;1689106;85;21159;-61
2021/03/02 04:09:17;;;;;;;5.78;5.17;;;;;;;1.72;77.38;100496.48;1689106;85;21100;-61
2021/03/02 04:11:45;;;;;;;5.87;5.25;;;;;;;1.68;77.40;100483.19;1693927;84;21087;-61
2021/03/02 04:14:12;;;;;;;6.75;5.83;;;;;;;1.65;77.42;100475.46;1693843;84;21531;-61
2021/03/02 04:16:42;;;;;;;5.85;5.25;;;;;;;1.63;77.28;100474.58;1693828;84;21621;-61
2021/03/02 04:19:10;;;;;;;5.70;5.05;;;;;;;1.61;77.34;100478.83;1688341;85;21583;-61
2021/03/02 04:21:38;;;;;;;6.62;5.87;;;;;;;1.58;77.51;100478.41;1689177;84;21512;-61
2021/03/02 04:24:08;;;;;;;8.28;6.22;;;;;;;1.57;77.58;100471.97;1693848;84;21079;-61
2021/03/02 04:26:35;;;;;;;7.12;6.42;;;;;;;1.53;77.61;100477.48;1693833;84;21389;-61
2021/03/02 04:29:03;;;;;;;6.95;6.25;;;;;;;1.49;77.67;100467.17;1693606;84;21152;-61
2021/03/02 04:31:33;;;;;;;7.25;6.08;;;;;;;1.44;77.83;100458.14;1689065;85;21571;-61
2021/03/02 04:34:00;;;;;;;7.58;6.75;;;;;;;1.43;77.98;100457.70;1693805;84;21536;-61
2021/03/02 04:36:29;;;;;;;8.10;6.83;;;;;;;1.37;78.12;100459.80;1693849;84;21096;-61
2021/03/02 04:38:57;;;;;;;9.58;7.58;;;;;;;1.31;78.40;100457.16;1693798;84;21200;-61
2021/03/02 04:41:25;;;;;;;7.05;6.35;;;;;;;1.29;78.60;100457.55;1689022;85;21116;-61
2021/03/02 04:43:52;;;;;;;7.70;6.22;;;;;;;1.30;78.79;100454.15;1693909;84;21587;-61
2021/03/02 04:46:20;;;;;;;6.62;6.03;;;;;;;1.34;78.83;100452.48;1693780;84;21194;-61
2021/03/02 04:48:48;;;;;;;7.15;6.45;;;;;;;1.34;78.86;100444.80;1693821;84;21530;-61
2021/03/02 04:51:16;;;;;;;7.62;6.83;;;;;;;1.36;78.93;100451.66;1689074;85;21209;-61
2021/03/02 04:53:45;;;;;;;8.50;6.92;;;;;;;1.39;78.95;100447.00;1693737;83;21111;-61
2021/03/02 04:56:12;;;;;;;7.15;6.45;;;;;;;1.40;78.88;100447.86;1693907;84;21150;-61
2021/03/02 04:58:40;;;;;;;6.33;5.72;;;;;;;1.41;78.89;100440.58;1693817;84;21219;-61
2021/03/02 05:01:07;;;;;;;6.12;5.45;;;;;;;1.45;78.86;100449.61;1689187;84;21083;-61
2021/03/02 05:03:36;;;;;;;7.10;6.03;;;;;;;1.49;78.86;100450.51;1693837;84;21434;-61
2021/03/02 05:06:05;;;;;;;6.75;6.10;;;;;;;1.50;78.77;100445.82;1693753;84;21139;-61
2021/03/02 05:08:32;;;;;;;7.83;6.17;;;;;;;1.51;78.81;100443.28;1693845;84;21156;-61
2021/03/02 05:11:00;;;;;;;7.75;6.33;;;;;;;1.54;78.85;100442.03;1689009;85;21182;-61
2021/03/02 05:13:28;;;;;;;7.40;5.83;;;;;;;1.58;78.82;100447.63;1693794;84;21221;-61
2021/03/02 05:15:58;;;;;;;8.18;7.08;;;;;;;1.63;78.85;100446.38;1691157;84;21377;-61
2021/03/02 05:18:25;;;;;;;7.60;6.80;;;;;;;1.67;78.76;100448.99;1693699;84;21522;-61
2021/03/02 05:20:53;;;;;;;7.75;6.95;;;;;;;1.71;78.58;100455.02;1689054;85;21139;-61
2021/03/02 05:23:20;;;;;;;9.03;7.55;;;;;;;1.71;78.54;100450.75;1693764;84;21181;-61
2021/03/02 05:25:48;;;;;;;8.53;7.62;;;;;;;1.72;78.55;100446.48;1693850;84;21508;-61
2021/03/02 05:28:16;;;;;;;8.10;7.10;;;;;;;1.75;78.57;100443.09;1694132;84;21208;-61
2021/03/02 05:30:43;;;;;;;7.28;6.30;;;;;;;1.79;78.43;100448.69;1693692;84;21559;-61
2021/03/02 05:33:11;;;;;;;8.65;7.85;;;;;;;1.78;78.42;100452.96;1728399;83;21539;-61
2021/03/02 05:35:39;;;;;;;9.75;8.75;;;;;;;1.79;78.37;100450.84;1728374;83;21705;-61
2021/03/02 05:38:07;;;;;;;11.12;9.85;;;;;;;1.78;78.32;100454.66;1728368;83;21525;-62
2021/03/02 05:40:40;;;;;;;11.30;9.70;;;;;;;1.77;78.23;100456.79;1728391;83;21216;-61
2021/03/02 05:43:09;;;;;;;10.45;9.45;;;;;;;1.73;77.60;100449.48;1725626;83;21507;-60
2021/03/02 05:45:37;;;;;;;11.48;9.90;;;;;;;1.66;77.87;100450.25;1728420;83;21141;-61
2021/03/02 05:48:08;;;;;;;11.33;10.00;;;;;;;1.60;77.87;100436.11;1728383;83;21075;-61
2021/03/02 05:50:37;;;;;;;11.70;10.50;;;;;;;1.58;77.89;100443.79;1728413;83;21050;-61
2021/03/02 05:53:06;;;;;;;11.57;10.40;;;;;;;1.59;77.90;100445.94;1728341;83;21570;-61
2021/03/02 05:55:35;;;;;;;10.23;9.23;;;;;;;1.57;77.98;100439.50;1728349;81;21571;-61
2021/03/02 05:58:07;;;;;;;11.45;10.30;;;;;;;1.56;78.14;100443.33;1728365;83;21141;-61
2021/03/02 06:00:34;;;;;;;12.33;11.12;;;;;;;1.55;78.34;100430.08;1728319;83;21062;-62
2021/03/02 06:03:02;;;;;;;11.85;10.65;;;;;;;1.55;78.54;100424.52;1728449;83;21135;-61
2021/03/02 06:05:30;;;;;;;11.63;10.05;;;;;;;1.56;78.44;100421.54;1728299;83;21275;-62
2021/03/02 06:07:59;;;;;;;11.03;9.63;;;;;;;1.58;78.47;100414.72;1726927;82;21607;-64
2021/03/02 06:10:31;;;;;;;11.20;10.10;;;;;;;1.62;78.51;100406.19;1725586;83;21182;-62
2021/03/02 06:12:59;;;;;;;12.90;11.35;;;;;;;1.64;78.59;100405.36;1727941;83;21091;-61
2021/03/02 06:15:30;;;;;;;11.28;10.08;;;;;;;1.70;78.29;100404.15;1728342;83;21063;-62
2021/03/02 06:18:15;;;;;;;11.12;9.55;;;;;;;1.72;78.08;100397.33;1728337;83;21368;-63
2021/03/02 06:20:45;;;;;;;11.80;10.58;;;;;;;1.71;77.88;100403.30;1728309;83;21120;-62
2021/03/02 06:23:31;;;;;;;10.72;8.58;;;;;;;1.69;77.77;100407.55;1728341;83;21079;-61
2021/03/02 06:26:13;;;;;;;9.88;8.10;;;;;;;1.65;77.89;100399.39;1728348;83;21090;-61
2021/03/02 06:28:45;;;;;;;12.70;10.08;;;;;;;1.64;77.94;100422.03;1728012;83;21126;-68
2021/03/02 06:31:45;;;;;;;9.43;8.28;;;;;;;1.59;78.06;100417.73;1727109;83;21391;-61
2021/03/02 06:37:05;;;;;;;14.23;11.33;;;;;;;1.59;78.50;100414.74;1793669;79;22388;-60
2021/03/02 06:39:36;;;;;;;11.80;9.18;;;;;;;1.58;78.59;100404.47;1785265;80;21118;-65
2021/03/02 06:42:14;;;;;;;8.93;8.03;;;;;;;1.60;78.61;100410.02;1784938;80;22280;-65
2021/03/02 06:44:50;;;;;;;8.10;7.30;;;;;;;1.63;78.72;100384.83;1780892;80;21178;-65
2021/03/02 06:47:34;;;;;;;8.00;7.17;;;;;;;1.69;78.61;100397.30;1785223;80;21587;-65
2021/03/02 06:50:17;;;;;;;9.93;8.38;;;;;;;1.72;78.51;100401.60;1785130;80;21012;-65
2021/03/02 06:52:47;;;;;;;10.27;8.43;;;;;;;1.72;78.27;100401.18;1784358;80;21627;-66
2021/03/02 06:55:29;;;;;;;10.10;7.55;;;;;;;1.72;78.23;100397.33;1782934;80;23065;-66
2021/03/02 06:58:19;;;;;;;9.35;7.62;;;;;;;1.72;78.45;100393.48;1776247;80;21172;-73
2021/03/02 07:00:56;;;;;;;8.95;7.62;;;;;;;1.76;78.57;100390.95;1767420;81;21235;-66
2021/03/02 07:03:32;;;;;;;8.45;6.97;;;;;;;1.81;78.52;100382.42;1769431;81;21687;-65
2021/03/02 07:06:06;;;;;;;10.10;7.75;;;;;;;1.87;78.53;100376.50;1758352;80;21122;-66
2021/03/02 07:08:36;;;;;;;10.45;7.90;;;;;;;1.91;78.27;100376.97;1742215;80;23455;-66
2021/03/02 07:11:04;;;;;;;8.98;7.55;;;;;;;1.94;78.05;100382.98;1745257;81;21138;-69
2021/03/02 07:13:33;;;;;;;10.10;8.68;;;;;;;1.95;77.87;100371.88;1717902;83;21572;-64
2021/03/02 07:16:02;;;;;;;11.22;8.00;;;;;;;1.97;77.84;100373.17;1747850;82;21122;-65
2021/03/02 07:18:31;;;;;;;10.05;8.18;;;;;;;2.00;77.61;100368.90;1718876;83;21215;-65
2021/03/02 07:21:00;;;;;;;9.63;8.13;;;;;;;2.01;77.73;100372.32;1747300;81;22280;-65
2021/03/02 07:23:30;;;;;;;8.35;7.00;;;;;;;2.04;77.67;100374.49;1721460;82;21171;-67
2021/03/02 07:25:58;;;;;;;10.00;8.28;;;;;;;2.10;77.65;100371.55;1665263;83;21519;-70
2021/03/02 07:28:34;;;;;;;11.03;9.80;;;;;;;2.13;77.49;100372.85;1710175;83;21659;-67
2021/03/02 07:31:03;;;;;;;11.63;9.75;;;;;;;2.14;77.47;100384.41;1695522;84;21208;-67
2021/03/02 07:33:32;;;;;;;12.80;10.35;;;;;;;2.13;77.19;100378.84;1750881;82;21387;-66
2021/03/02 07:36:02;;;;;;;11.90;9.45;;;;;;;2.12;77.36;100385.25;1656545;84;21169;-67
2021/03/02 07:38:31;;;;;;;14.10;9.85;;;;;;;2.12;77.29;100369.42;1729000;81;21627;-65
2021/03/02 07:40:59;;;;;;;14.07;10.90;;;;;;;2.11;77.33;100377.97;1754831;81;21190;-65
2021/03/02 07:43:36;;;;;;;11.95;10.40;;;;;;;2.13;77.44;100376.70;1754933;81;21201;-64
2021/03/02 07:46:41;;;;;;;13.65;10.18;;;;;;;2.16;77.39;100369.03;1755118;81;21496;-65
2021/03/02 07:49:30;;;;;;;13.35;10.82;;;;;;;2.17;77.28;100368.19;1753326;81;21166;-66
2021/03/02 07:52:09;;;;;;;15.32;12.13;;;;;;;2.16;77.42;100373.73;1754560;81;21072;-63
2021/03/02 07:54:38;;;;;;;15.93;11.88;;;;;;;2.16;77.34;100359.63;1753615;81;21151;-66
2021/03/02 07:57:21;;;;;;;14.95;11.93;;;;;;;2.15;77.50;100367.31;1754546;81;21071;-65
2021/03/02 08:00:20;;;;;;;13.13;10.95;;;;;;;2.13;77.66;100360.02;1693262;84;21491;-63
2021/03/02 08:03:10;;;;;;;14.70;11.93;;;;;;;2.17;77.59;100360.06;1754464;81;21092;-64
2021/03/02 08:05:48;;;;;;;17.35;12.65;;;;;;;2.18;77.61;100368.63;1747412;81;21063;-64
2021/03/02 08:08:29;;;;;;;16.55;12.85;;;;;;;2.17;77.69;100377.17;1751373;81;21031;-65
2021/03/02 08:11:10;;;;;;;17.48;13.88;;;;;;;2.17;77.88;100381.88;1755946;81;21035;-64
2021/03/02 08:13:40;;;;;;;16.97;12.87;;;;;;;2.15;77.80;100371.16;1678249;84;21509;-66
2021/03/02 08:16:13;;;;;;;17.37;13.03;;;;;;;2.14;77.97;100371.58;1738519;81;21648;-67
2021/03/02 08:18:43;;;;;;;21.25;13.43;;;;;;;2.18;78.08;100379.75;1724450;81;21136;-63
2021/03/02 08:21:21;;;;;;;27.15;19.73;;;;;;;2.19;78.02;100381.89;1726130;81;21089;-65
2021/03/02 08:23:57;;;;;;;22.45;16.77;;;;;;;2.20;78.25;100379.30;1702030;83;21226;-66
2021/03/02 08:26:37;;;;;;;19.80;14.93;;;;;;;2.26;78.27;100375.92;1726207;83;21423;-66
2021/03/02 08:29:15;;;;;;;22.52;16.80;;;;;;;2.30;78.08;100366.13;1725880;83;21073;-64
2021/03/02 08:31:49;;;;;;;19.37;13.75;;;;;;;2.31;78.00;100369.13;1740603;81;21221;-70
2021/03/02 08:34:20;;;;;;;22.32;15.98;;;;;;;2.29;78.04;100365.26;1740110;81;21535;-65
2021/03/02 08:36:52;;;;;;;22.37;15.95;;;;;;;2.26;77.89;100362.67;1745984;81;21480;-65
2021/03/02 08:39:20;;;;;;;19.92;14.45;;;;;;;2.25;78.08;100366.51;1723049;83;21218;-64
2021/03/02 08:41:49;;;;;;;19.77;15.80;;;;;;;2.23;77.83;100371.63;1718028;82;21143;-65
2021/03/02 08:44:20;;;;;;;21.62;16.30;;;;;;;2.21;77.66;100371.18;1724012;83;21072;-65
2021/03/02 08:46:50;;;;;;;21.35;15.75;;;;;;;2.14;77.66;100370.30;1743081;82;21122;-65
2021/03/02 08:49:19;;;;;;;26.52;16.20;;;;;;;2.09;78.00;100365.55;1724019;83;21521;-65
2021/03/02 08:51:47;;;;;;;19.80;14.95;;;;;;;2.07;78.10;100357.84;1741678;82;21372;-65
2021/03/02 08:54:15;;;;;;;23.18;15.45;;;;;;;2.10;77.95;100349.31;1689096;83;21050;-64
2021/03/02 08:56:44;;;;;;;22.85;15.70;;;;;;;2.11;77.96;100352.31;1711554;83;21111;-64
2021/03/02 08:59:14;;;;;;;25.48;17.80;;;;;;;2.11;78.00;100347.60;1723885;83;21139;-65
2021/03/02 09:01:42;;;;;;;26.60;19.00;;;;;;;2.12;78.09;100359.16;1743062;82;21578;-65
2021/03/02 09:04:18;;;;;;;22.62;16.37;;;;;;;2.15;78.12;100357.91;1723945;83;21448;-65
2021/03/02 09:06:50;;;;;;;20.32;15.32;;;;;;;2.20;78.18;100358.77;1743214;82;21619;-64
2021/03/02 09:09:20;;;;;;;20.08;14.70;;;;;;;2.24;78.14;100362.22;1723835;83;21210;-64
2021/03/02 09:11:54;;;;;;;20.23;14.90;;;;;;;2.24;77.83;100364.36;1743012;82;21060;-66
2021/03/02 09:17:15;;;;;;;22.42;15.10;;;;;;;2.24;78.04;100342.55;1873546;75;22397;-65
2021/03/02 09:19:44;;;;;;;18.52;13.18;;;;;;;2.19;78.19;100353.66;1841478;78;21104;-66
2021/03/02 09:22:21;;;;;;;21.02;14.50;;;;;;;2.21;78.27;100344.23;1841620;77;22096;-67
2021/03/02 09:24:57;;;;;;;21.95;15.58;;;;;;;2.23;78.17;100342.11;1841399;77;20997;-65
2021/03/02 09:27:32;;;;;;;18.40;13.38;;;;;;;2.22;78.29;100341.67;1840981;77;21109;-65
2021/03/02 09:30:00;;;;;;;20.90;14.33;;;;;;;2.26;78.08;100339.56;1841368;77;21242;-66
2021/03/02 09:32:31;;;;;;;19.07;13.30;;;;;;;2.29;77.99;100342.58;1841595;78;21518;-65
2021/03/02 09:35:01;;;;;;;17.67;11.80;;;;;;;2.30;78.14;100341.73;1841446;78;21408;-66
2021/03/02 09:37:29;;;;;;;17.98;12.23;;;;;;;2.31;77.99;100343.03;1841405;77;21106;-64
2021/03/02 09:40:09;;;;;;;20.95;13.53;;;;;;;2.37;77.79;100343.50;1841352;77;21093;-65
2021/03/02 09:42:39;;;;;;;18.07;13.10;;;;;;;2.39;77.76;100340.09;1841357;78;21152;-66
2021/03/02 09:45:18;;;;;;;18.62;12.95;;;;;;;2.44;77.52;100331.10;1841390;78;21125;-64
2021/03/02 09:47:48;;;;;;;18.23;12.30;;;;;;;2.52;77.32;100331.16;1841407;77;21251;-65
2021/03/02 09:50:18;;;;;;;18.37;12.63;;;;;;;2.59;76.61;100323.92;1841473;77;21137;-65
2021/03/02 09:52:55;;;;;;;21.17;13.93;;;;;;;2.62;76.47;100326.05;1840290;77;21652;-65
2021/03/02 09:55:26;;;;;;;19.12;13.22;;;;;;;2.63;76.41;100313.64;1816372;78;21065;-65
2021/03/02 09:58:12;;;;;;;21.57;13.75;;;;;;;2.69;76.34;100320.52;1808438;78;21041;-64
2021/03/02 10:00:49;;;;;;;19.23;12.93;;;;;;;2.74;76.12;100313.70;1808452;78;21204;-66
2021/03/02 10:03:36;;;;;;;18.42;12.37;;;;;;;2.80;76.17;100316.27;1781302;78;21143;-64
2021/03/02 10:06:06;;;;;;;20.68;13.28;;;;;;;2.84;75.59;100310.72;1808481;79;21110;-66
2021/03/02 10:08:41;;;;;;;17.50;11.43;;;;;;;2.79;75.84;100316.30;1808191;79;21491;-64
2021/03/02 10:11:19;;;;;;;18.87;12.88;;;;;;;2.78;76.15;100318.00;1807128;78;21669;-65
2021/03/02 10:13:56;;;;;;;19.92;13.75;;;;;;;2.80;76.10;100321.41;1807692;79;21190;-65
2021/03/02 10:16:38;;;;;;;21.35;13.80;;;;;;;2.84;76.16;100322.28;1811258;78;21085;-66
2021/03/02 10:19:20;;;;;;;22.40;15.33;;;;;;;2.93;76.20;100302.63;1814333;79;21128;-65
2021/03/02 10:21:51;;;;;;;19.95;14.15;;;;;;;3.07;75.74;100308.65;1814112;78;21842;-65
2021/03/02 10:24:23;;;;;;;17.82;12.45;;;;;;;3.19;75.60;100297.98;1814085;79;21205;-65
2021/03/02 10:26:52;;;;;;;21.75;13.85;;;;;;;3.26;74.98;100297.11;1813942;78;21372;-64
2021/03/02 10:29:19;;;;;;;22.10;14.35;;;;;;;3.25;74.76;100293.68;1813475;79;21199;-65
2021/03/02 10:31:48;;;;;;;23.10;14.28;;;;;;;3.19;74.36;100278.70;1813618;79;21160;-65
2021/03/02 10:34:16;;;;;;;21.05;12.93;;;;;;;3.11;74.63;100276.11;1813537;79;21065;-66
2021/03/02 10:36:48;;;;;;;23.10;13.53;;;;;;;3.04;74.95;100275.23;1813534;79;21077;-67
2021/03/02 10:39:16;;;;;;;21.90;14.65;;;;;;;3.01;75.11;100280.36;1813348;79;23582;-65
2021/03/02 10:41:45;;;;;;;21.12;14.43;;;;;;;3.00;74.91;100271.36;1813451;78;21081;-64
2021/03/02 10:44:13;;;;;;;20.97;14.05;;;;;;;2.96;75.46;100273.09;1810929;79;21994;-65
2021/03/02 10:46:42;;;;;;;22.52;14.45;;;;;;;2.98;75.22;100270.52;1809337;78;21155;-68
2021/03/02 10:49:10;;;;;;;19.67;13.90;;;;;;;2.97;75.41;100251.68;1812694;78;21553;-64
2021/03/02 10:51:38;;;;;;;23.18;14.43;;;;;;;2.97;75.53;100249.11;1813494;79;21750;-65
2021/03/02 10:54:06;;;;;;;22.67;14.38;;;;;;;3.03;75.45;100239.24;1813477;78;21636;-64
2021/03/02 10:56:34;;;;;;;23.92;14.70;;;;;;;3.05;75.39;100233.25;1813458;79;21493;-65
2021/03/02 10:59:02;;;;;;;20.80;14.80;;;;;;;3.08;75.31;100214.41;1813385;79;21081;-65
2021/03/02 11:01:30;;;;;;;25.00;15.83;;;;;;;3.09;74.97;100223.41;1813478;79;21128;-65
2021/03/02 11:04:00;;;;;;;21.68;15.25;;;;;;;3.08;75.27;100224.27;1813373;79;21366;-66
2021/03/02 11:06:29;;;;;;;21.75;14.18;;;;;;;3.08;75.41;100232.41;1813362;78;21124;-65
2021/03/02 11:09:03;;;;;;;21.50;14.87;;;;;;;3.09;75.39;100229.84;1813422;78;21175;-64
2021/03/02 11:11:31;;;;;;;22.75;14.95;;;;;;;3.09;75.31;100242.69;1813369;78;21120;-64
2021/03/02 11:13:59;;;;;;;23.38;15.75;;;;;;;3.11;75.28;100247.84;1813412;79;21083;-65
2021/03/02 11:16:27;;;;;;;23.90;16.05;;;;;;;3.09;75.06;100232.41;1810817;77;21477;-64
2021/03/02 11:18:57;;;;;;;22.85;14.07;;;;;;;3.07;75.19;100225.12;1807311;78;21573;-66
2021/03/02 11:21:27;;;;;;;23.20;15.48;;;;;;;3.07;75.35;100218.70;1806440;79;21161;-68
2021/03/02 11:23:57;;;;;;;27.80;16.52;;;;;;;3.07;75.17;100226.84;1778651;79;21167;-66
2021/03/02 11:26:24;;;;;;;25.05;16.10;;;;;;;3.07;75.46;100217.84;1807316;79;21673;-65
2021/03/02 11:28:52;;;;;;;25.17;17.07;;;;;;;3.08;75.26;100226.84;1807697;79;21191;-65
2021/03/02 11:31:22;;;;;;;29.25;17.70;;;;;;;3.06;75.19;100234.11;1807735;78;21526;-74
2021/03/02 11:33:49;;;;;;;27.27;18.15;;;;;;;3.06;75.34;100240.11;1807790;79;21089;-80
2021/03/02 11:36:19;;;;;;;29.55;17.40;;;;;;;3.06;75.39;100218.27;1807793;79;21156;-80
2021/03/02 11:38:47;;;;;;;29.15;17.32;;;;;;;3.05;75.37;100206.27;1807803;78;21629;-67
2021/03/02 11:41:17;;;;;;;30.37;18.55;;;;;;;3.06;75.52;100204.13;1807770;78;21605;-71
2021/03/02 11:43:44;;;;;;;27.30;18.67;;;;;;;3.09;75.23;100195.57;1807710;79;21085;-61
2021/03/02 11:46:13;;;;;;;27.62;18.00;;;;;;;3.13;74.71;100188.72;1807810;79;21474;-63
2021/03/02 11:48:42;;;;;;;25.68;17.27;;;;;;;3.13;75.02;100192.58;1807763;78;21061;-60
2021/03/02 11:51:09;;;;;;;28.90;18.90;;;;;;;3.15;74.17;100185.30;1807793;78;21582;-61